createdAt,value
2019-04-04T00:01:26.085Z,2.80
2019-04-04T00:04:13.246Z,2.93
2019-04-04T00:06:59.933Z,3.00
2019-04-04T00:09:46.929Z,2.80
2019-04-04T00:12:34.230Z,2.70
2019-04-04T00:15:21.229Z,2.40
2019-04-04T00:18:08.244Z,2.70
2019-04-04T00:20:55.313Z,2.77
2019-04-04T00:23:42.473Z,2.37
2019-04-04T00:26:29.826Z,2.43
2019-04-04T00:29:17.238Z,3.57
2019-04-04T00:32:05.088Z,3.10
2019-04-04T00:34:52.102Z,3.60
2019-04-04T00:37:41.062Z,3.33
2019-04-04T00:40:28.004Z,3.37
2019-04-04T00:43:15.448Z,7.77
2019-04-04T00:46:02.566Z,8.90
2019-04-04T00:48:49.579Z,4.17
2019-04-04T00:51:39.154Z,4.20
2019-04-04T00:54:25.627Z,4.00
2019-04-04T00:57:12.904Z,3.50
2019-04-04T00:59:59.920Z,4.00
2019-04-04T01:02:47.284Z,3.37
2019-04-04T01:05:34.462Z,3.77
2019-04-04T01:08:21.638Z,2.93
2019-04-04T01:11:08.850Z,3.33
2019-04-04T01:13:57.560Z,4.97
2019-04-04T01:16:44.461Z,4.93
2019-04-04T01:19:31.558Z,3.50
2019-04-04T01:22:18.581Z,3.50
2019-04-04T01:25:07.075Z,3.03
2019-04-04T01:27:54.394Z,3.17
2019-04-04T01:30:41.711Z,2.60
2019-04-04T01:33:30.055Z,2.70
2019-04-04T01:36:17.316Z,2.80
2019-04-04T01:39:06.097Z,2.23
2019-04-04T01:41:53.105Z,1.63
2019-04-04T01:44:42.142Z,2.10
2019-04-04T01:47:28.802Z,2.30
2019-04-04T01:50:16.285Z,2.50
2019-04-04T01:53:03.724Z,2.37
2019-04-04T01:55:50.914Z,2.10
2019-04-04T01:58:40.962Z,2.77
2019-04-04T02:01:26.569Z,2.90
2019-04-04T02:04:14.125Z,2.40
2019-04-04T02:07:01.506Z,2.30
2019-04-04T02:09:48.636Z,2.30
2019-04-04T02:12:38.560Z,3.00
2019-04-04T02:15:24.699Z,2.57
2019-04-04T02:18:11.758Z,2.53
2019-04-04T02:20:59.080Z,2.30
2019-04-04T02:23:46.190Z,2.30
2019-04-04T02:26:34.093Z,2.33
2019-04-04T02:29:22.405Z,2.00
2019-04-04T02:32:11.248Z,2.00
2019-04-04T02:34:58.295Z,2.10
2019-04-04T02:37:45.541Z,2.67
2019-04-04T02:40:32.993Z,2.47
2019-04-04T02:43:20.282Z,3.00
2019-04-04T02:46:11.030Z,3.23
2019-04-04T02:48:56.222Z,2.83
2019-04-04T02:51:44.275Z,2.63
2019-04-04T02:54:31.121Z,2.57
2019-04-04T02:57:17.832Z,4.40
2019-04-04T03:00:06.467Z,2.60
2019-04-04T03:02:53.834Z,1.77
2019-04-04T03:05:41.070Z,2.00
2019-04-04T03:08:27.878Z,1.90
2019-04-04T03:11:15.022Z,2.10
2019-04-04T03:14:03.688Z,1.60
2019-04-04T03:16:50.936Z,2.93
2019-04-04T03:19:37.919Z,2.93
2019-04-04T03:22:27.560Z,2.50
2019-04-04T03:25:15.518Z,2.20
2019-04-04T03:28:02.998Z,2.90
2019-04-04T03:31:00.856Z,2.57
2019-04-04T03:33:38.611Z,2.30
2019-04-04T03:36:25.706Z,2.37
2019-04-04T03:39:12.620Z,2.53
2019-04-04T03:41:59.633Z,2.70
2019-04-04T03:44:46.621Z,2.93
2019-04-04T03:47:33.563Z,2.73
2019-04-04T03:50:20.268Z,3.63
2019-04-04T03:53:07.347Z,4.20
2019-04-04T03:55:54.533Z,4.97
2019-04-04T03:58:41.895Z,5.30
2019-04-04T04:01:29.214Z,5.80
2019-04-04T04:04:16.109Z,6.80
2019-04-04T04:07:03.184Z,5.93
2019-04-04T04:09:50.066Z,5.73
2019-04-04T04:12:37.449Z,4.50
2019-04-04T04:15:24.194Z,6.07
2019-04-04T04:18:11.769Z,6.60
2019-04-04T04:20:59.303Z,6.97
2019-04-04T04:23:49.674Z,8.13
2019-04-04T04:26:35.039Z,10.63
2019-04-04T04:29:22.180Z,10.47
2019-04-04T04:32:09.407Z,12.00
2019-04-04T04:34:56.629Z,12.50
2019-04-04T04:37:43.865Z,12.87
2019-04-04T04:40:31.054Z,13.20
2019-04-04T04:43:18.021Z,14.37
2019-04-04T04:46:04.976Z,13.73
2019-04-04T04:48:52.037Z,13.83
2019-04-04T04:51:43.113Z,14.10
2019-04-04T04:54:28.088Z,13.80
2019-04-04T04:57:28.739Z,13.77
2019-04-04T05:00:05.151Z,13.90
2019-04-04T05:02:53.093Z,14.23
2019-04-04T05:05:41.142Z,13.03
2019-04-04T05:08:28.353Z,15.23
2019-04-04T05:11:16.843Z,14.17
2019-04-04T05:14:04.460Z,14.83
2019-04-04T05:16:51.793Z,13.93
2019-04-04T05:19:39.128Z,12.73
2019-04-04T05:22:26.315Z,13.53
2019-04-04T05:25:13.710Z,12.30
2019-04-04T05:28:01.078Z,12.83
2019-04-04T05:30:48.239Z,13.80
2019-04-04T05:33:35.548Z,12.90
2019-04-04T05:36:22.837Z,11.37
2019-04-04T05:39:09.702Z,11.37
2019-04-04T05:41:58.112Z,11.67
2019-04-04T05:44:45.876Z,10.67
2019-04-04T05:47:32.989Z,10.63
2019-04-04T05:50:20.031Z,12.27
2019-04-04T05:53:07.312Z,10.10
2019-04-04T05:55:54.393Z,10.47
2019-04-04T05:58:41.073Z,11.43
2019-04-04T06:01:28.420Z,10.33
2019-04-04T06:04:17.237Z,10.23
2019-04-04T06:07:04.892Z,10.63
2019-04-04T06:09:52.428Z,10.83
2019-04-04T06:12:39.434Z,10.30
2019-04-04T06:15:26.427Z,10.07
2019-04-04T06:18:13.180Z,11.33
2019-04-04T06:21:00.360Z,10.07
2019-04-04T06:23:47.482Z,9.10
2019-04-04T06:26:36.055Z,10.03
2019-04-04T06:29:23.289Z,11.53
2019-04-04T06:32:10.534Z,10.97
2019-04-04T06:34:57.810Z,11.27
2019-04-04T06:37:46.213Z,12.43
2019-04-04T06:40:33.699Z,14.90
2019-04-04T06:43:20.887Z,14.70
2019-04-04T06:46:08.183Z,14.73
2019-04-04T06:48:55.390Z,16.30
2019-04-04T06:51:46.041Z,16.07
2019-04-04T06:54:31.032Z,22.17
2019-04-04T06:57:18.507Z,55.80
2019-04-04T07:00:07.940Z,21.57
2019-04-04T07:02:56.204Z,21.20
2019-04-04T07:05:43.263Z,19.10
2019-04-04T07:08:30.632Z,23.60
2019-04-04T07:11:21.526Z,22.17
2019-04-04T07:14:06.666Z,22.53
2019-04-04T07:16:53.696Z,21.30
2019-04-04T07:19:40.964Z,23.07
2019-04-04T07:22:28.258Z,19.50
2019-04-04T07:25:15.546Z,19.87
2019-04-04T07:28:02.916Z,19.87
2019-04-04T07:30:50.150Z,21.93
2019-04-04T07:33:37.542Z,22.27
2019-04-04T07:36:24.589Z,21.10
2019-04-04T07:39:12.414Z,22.13
2019-04-04T07:41:59.789Z,15.67
2019-04-04T07:44:47.128Z,19.00
2019-04-04T07:47:34.506Z,13.27
2019-04-04T07:50:21.889Z,14.33
2019-04-04T07:53:09.154Z,12.97
2019-04-04T07:55:56.088Z,13.27
2019-04-04T07:58:42.824Z,49.23
2019-04-04T08:01:30.154Z,13.13
2019-04-04T08:04:17.292Z,15.57
2019-04-04T08:07:04.326Z,14.43
2019-04-04T08:09:51.820Z,19.67
2019-04-04T08:12:38.934Z,17.37
2019-04-04T08:15:26.086Z,20.63
2019-04-04T08:18:13.524Z,19.33
2019-04-04T08:21:00.851Z,15.00
2019-04-04T08:23:47.920Z,23.97
2019-04-04T08:26:35.279Z,15.10
2019-04-04T08:29:22.849Z,12.60
2019-04-04T08:32:10.232Z,16.23
2019-04-04T08:34:57.299Z,16.47
2019-04-04T08:37:44.564Z,11.33
2019-04-04T08:40:31.878Z,13.10
2019-04-04T08:43:18.801Z,9.73
2019-04-04T08:46:05.689Z,9.80
2019-04-04T08:48:52.872Z,10.73
2019-04-04T08:51:39.834Z,10.00
2019-04-04T08:54:26.847Z,10.50
2019-04-04T08:57:14.247Z,9.93
2019-04-04T09:00:00.925Z,10.03
2019-04-04T09:02:47.936Z,8.57
2019-04-04T09:05:35.678Z,8.57
2019-04-04T09:08:22.936Z,6.90
2019-04-04T09:11:10.269Z,6.80
2019-04-04T09:13:57.347Z,6.87
2019-04-04T09:16:44.550Z,5.83
2019-04-04T09:19:31.530Z,6.40
2019-04-04T09:22:18.864Z,6.60
2019-04-04T09:25:10.407Z,6.53
2019-04-04T09:27:57.898Z,6.77
2019-04-04T09:30:44.999Z,6.37
2019-04-04T09:33:32.042Z,6.30
2019-04-04T09:36:19.016Z,6.80
2019-04-04T09:39:06.631Z,6.90
2019-04-04T09:41:54.106Z,5.60
2019-04-04T09:44:41.266Z,5.33
2019-04-04T09:47:28.389Z,5.83
2019-04-04T09:50:15.942Z,5.93
2019-04-04T09:53:03.183Z,6.63
2019-04-04T09:55:50.506Z,6.87
2019-04-04T09:58:37.445Z,6.37
2019-04-04T10:01:24.554Z,7.60
2019-04-04T10:04:11.769Z,6.57
2019-04-04T10:06:58.853Z,7.10
2019-04-04T10:09:45.966Z,7.07
2019-04-04T10:12:33.115Z,5.93
2019-04-04T10:15:20.449Z,6.40
2019-04-04T10:18:07.553Z,7.17
2019-04-04T10:20:54.277Z,10.37
2019-04-04T10:23:41.676Z,6.83
2019-04-04T10:26:28.658Z,8.00
2019-04-04T10:29:16.018Z,6.50
2019-04-04T10:32:03.122Z,6.77
2019-04-04T10:34:49.970Z,6.27
2019-04-04T10:37:37.256Z,5.90
2019-04-04T10:40:24.576Z,5.37
2019-04-04T10:43:11.852Z,5.07
2019-04-04T10:45:59.055Z,5.03
2019-04-04T10:48:45.917Z,7.37
2019-04-04T10:51:33.287Z,6.30
2019-04-04T10:54:20.229Z,5.97
2019-04-04T10:57:07.350Z,5.83
2019-04-04T10:59:54.935Z,5.23
2019-04-04T11:02:42.361Z,5.47
2019-04-04T11:05:29.336Z,5.77
2019-04-04T11:08:16.773Z,5.27
2019-04-04T11:11:03.953Z,5.47
2019-04-04T11:13:51.110Z,5.30
2019-04-04T11:16:37.933Z,5.53
2019-04-04T11:19:30.866Z,4.90
2019-04-04T11:22:14.184Z,4.87
2019-04-04T11:25:01.604Z,4.17
2019-04-04T11:27:48.789Z,3.73
2019-04-04T11:30:36.063Z,3.60
2019-04-04T11:33:23.404Z,3.20
2019-04-04T11:36:10.650Z,3.30
2019-04-04T11:38:58.203Z,2.90
2019-04-04T11:41:45.536Z,3.13
2019-04-04T11:44:32.590Z,3.53
2019-04-04T11:47:19.718Z,3.53
2019-04-04T11:50:08.464Z,3.20
2019-04-04T11:52:55.373Z,3.43
2019-04-04T11:55:42.247Z,2.90
2019-04-04T11:58:29.707Z,3.40
2019-04-04T12:01:18.395Z,3.23
2019-04-04T12:04:05.205Z,3.20
2019-04-04T12:06:52.618Z,3.80
2019-04-04T12:09:41.691Z,3.57
2019-04-04T12:12:28.801Z,3.10
2019-04-04T12:15:16.294Z,3.23
2019-04-04T12:18:03.421Z,3.50
2019-04-04T12:20:50.694Z,2.77
2019-04-04T12:23:37.993Z,3.93
2019-04-04T12:26:25.070Z,2.97
2019-04-04T12:29:12.109Z,2.93
2019-04-04T12:31:59.440Z,1.73
2019-04-04T12:34:46.700Z,1.60
2019-04-04T12:37:34.190Z,1.50
2019-04-04T12:40:21.529Z,2.00
2019-04-04T12:43:08.930Z,1.70
2019-04-04T12:45:56.163Z,1.23
2019-04-04T12:48:43.480Z,1.00
2019-04-04T12:51:30.823Z,1.07
2019-04-04T12:54:18.050Z,0.90
2019-04-04T12:57:05.299Z,0.90
2019-04-04T12:59:52.577Z,0.87
2019-04-04T13:02:39.713Z,1.20
2019-04-04T13:05:26.697Z,1.27
2019-04-04T13:08:14.079Z,1.07
2019-04-04T13:11:01.485Z,1.20
2019-04-04T13:13:48.523Z,1.50
2019-04-04T13:16:35.776Z,1.70
2019-04-04T13:19:23.122Z,1.60
2019-04-04T13:22:09.876Z,1.80
2019-04-04T13:24:57.131Z,1.50
2019-04-04T13:27:44.135Z,1.80
2019-04-04T13:30:31.369Z,1.80
2019-04-04T13:33:18.823Z,1.77
2019-04-04T13:36:06.040Z,1.83
2019-04-04T13:38:55.137Z,1.53
2019-04-04T13:41:42.226Z,1.70
2019-04-04T13:44:29.557Z,2.17
2019-04-04T13:47:16.756Z,1.73
2019-04-04T13:50:06.596Z,1.70
2019-04-04T13:52:53.635Z,1.40
2019-04-04T13:55:40.993Z,1.33
2019-04-04T13:58:28.042Z,1.30
2019-04-04T14:01:14.808Z,1.77
2019-04-04T14:04:02.396Z,1.60
2019-04-04T14:06:49.493Z,1.67
2019-04-04T14:09:36.742Z,1.60
2019-04-04T14:12:23.743Z,2.00
2019-04-04T14:15:12.799Z,1.83
2019-04-04T14:17:59.727Z,1.70
2019-04-04T14:20:46.961Z,1.20
2019-04-04T14:23:34.127Z,1.63
2019-04-04T14:26:21.050Z,1.70
2019-04-04T14:29:08.423Z,2.20
2019-04-04T14:31:55.182Z,2.27
2019-04-04T14:34:42.317Z,1.27
2019-04-04T14:37:29.501Z,1.40
2019-04-04T14:40:16.707Z,1.87
2019-04-04T14:43:04.209Z,1.60
2019-04-04T14:45:51.327Z,1.93
2019-04-04T14:48:38.106Z,1.50
2019-04-04T14:51:25.545Z,1.60
2019-04-04T14:54:12.306Z,2.00
2019-04-04T14:56:59.260Z,3.80
2019-04-04T14:59:46.455Z,1.97
2019-04-04T15:02:33.261Z,1.97
2019-04-04T15:05:20.296Z,2.10
2019-04-04T15:08:07.429Z,2.33
2019-04-04T15:10:54.639Z,1.40
2019-04-04T15:13:41.877Z,2.00
2019-04-04T15:16:29.538Z,1.73
2019-04-04T15:19:17.300Z,2.00
2019-04-04T15:22:04.686Z,1.80
2019-04-04T15:24:51.708Z,2.07
2019-04-04T15:27:38.517Z,1.57
2019-04-04T15:30:25.618Z,1.70
2019-04-04T15:33:12.999Z,1.70
2019-04-04T15:36:00.584Z,1.67
2019-04-04T15:38:47.722Z,1.90
2019-04-04T15:41:37.331Z,3.10
2019-04-04T15:44:23.450Z,2.30
2019-04-04T15:47:10.557Z,1.80
2019-04-04T15:49:57.790Z,2.13
2019-04-04T15:52:44.590Z,2.07
2019-04-04T15:55:31.562Z,2.37
2019-04-04T15:58:18.675Z,3.57
2019-04-04T16:01:06.034Z,2.23
2019-04-04T16:03:53.340Z,2.60
2019-04-04T16:06:40.099Z,2.43
2019-04-04T16:09:27.105Z,2.27
2019-04-04T16:12:13.985Z,1.63
2019-04-04T16:15:01.049Z,1.70
2019-04-04T16:17:48.017Z,2.37
2019-04-04T16:20:35.397Z,2.33
2019-04-04T16:23:22.454Z,2.33
2019-04-04T16:26:09.250Z,2.60
2019-04-04T16:28:56.626Z,3.33
2019-04-04T16:31:44.069Z,3.60
2019-04-04T16:34:31.195Z,1.70
2019-04-04T16:37:18.449Z,2.00
2019-04-04T16:40:09.475Z,2.93
2019-04-04T16:42:57.007Z,2.00
2019-04-04T16:45:44.161Z,2.40
2019-04-04T16:48:31.601Z,2.63
2019-04-04T16:51:18.700Z,2.80
2019-04-04T16:54:05.897Z,2.93
2019-04-04T16:56:53.134Z,2.70
2019-04-04T16:59:40.130Z,2.60
2019-04-04T17:02:27.118Z,2.27
2019-04-04T17:05:14.555Z,2.33
2019-04-04T17:08:01.535Z,2.27
2019-04-04T17:10:48.859Z,2.00
2019-04-04T17:13:36.273Z,2.73
2019-04-04T17:16:23.243Z,4.07
2019-04-04T17:19:10.373Z,3.60
2019-04-04T17:21:57.931Z,3.00
2019-04-04T17:24:44.981Z,3.20
2019-04-04T17:27:32.277Z,2.70
2019-04-04T17:30:19.894Z,3.87
2019-04-04T17:33:07.015Z,3.00
2019-04-04T17:35:54.425Z,2.50
2019-04-04T17:38:41.608Z,2.73
2019-04-04T17:41:29.077Z,3.07
2019-04-04T17:44:16.094Z,4.80
2019-04-04T17:47:03.219Z,2.83
2019-04-04T17:49:50.557Z,3.37
2019-04-04T17:52:37.906Z,3.90
2019-04-04T17:55:25.341Z,3.30
2019-04-04T17:58:12.834Z,2.70
2019-04-04T18:01:00.238Z,3.33
2019-04-04T18:03:47.222Z,2.97
2019-04-04T18:06:34.636Z,14.23
2019-04-04T18:09:31.777Z,3.10
2019-04-04T18:12:10.707Z,2.93
2019-04-04T18:14:57.416Z,3.10
2019-04-04T18:17:44.834Z,3.00
2019-04-04T18:20:32.227Z,3.00
2019-04-04T18:23:19.332Z,3.00
2019-04-04T18:26:06.722Z,3.07
2019-04-04T18:28:53.912Z,3.50
2019-04-04T18:31:41.191Z,4.13
2019-04-04T18:34:28.243Z,2.83
2019-04-04T18:37:15.003Z,3.60
2019-04-04T18:40:02.570Z,3.17
2019-04-04T18:42:53.455Z,3.40
2019-04-04T18:45:38.811Z,4.07
2019-04-04T18:48:26.001Z,2.97
2019-04-04T18:51:13.135Z,3.80
2019-04-04T18:54:00.251Z,4.13
2019-04-04T18:56:47.174Z,4.80
2019-04-04T18:59:34.367Z,2.57
2019-04-04T19:02:21.391Z,3.03
2019-04-04T19:05:08.905Z,2.70
2019-04-04T19:07:56.303Z,2.73
2019-04-04T19:10:43.568Z,3.10
2019-04-04T19:13:34.132Z,2.93
2019-04-04T19:16:19.819Z,3.40
2019-04-04T19:19:06.992Z,2.93
2019-04-04T19:21:54.027Z,3.43
2019-04-04T19:24:40.990Z,3.30
2019-04-04T19:27:28.053Z,3.73
2019-04-04T19:30:16.377Z,4.33
2019-04-04T19:33:03.959Z,4.20
2019-04-04T19:35:50.705Z,4.50
2019-04-04T19:38:37.625Z,3.80
2019-04-04T19:41:25.019Z,3.90
2019-04-04T19:44:12.579Z,4.30
2019-04-04T19:46:59.986Z,5.07
2019-04-04T19:49:47.315Z,5.20
2019-04-04T19:52:34.581Z,4.70
2019-04-04T19:55:21.351Z,5.00
2019-04-04T19:58:08.629Z,5.27
2019-04-04T20:00:55.751Z,5.40
2019-04-04T20:03:43.034Z,5.43
2019-04-04T20:06:30.491Z,6.10
2019-04-04T20:09:17.634Z,5.93
2019-04-04T20:12:04.952Z,5.50
2019-04-04T20:14:51.943Z,5.87
2019-04-04T20:17:39.229Z,5.13
2019-04-04T20:20:26.694Z,5.47
2019-04-04T20:23:13.745Z,4.27
2019-04-04T20:26:01.220Z,4.60
2019-04-04T20:28:48.279Z,4.20
2019-04-04T20:31:35.407Z,3.90
2019-04-04T20:34:22.613Z,4.00
2019-04-04T20:37:09.944Z,3.23
2019-04-04T20:39:57.324Z,4.10
2019-04-04T20:42:44.747Z,4.07
2019-04-04T20:45:32.139Z,3.97
2019-04-04T20:48:19.120Z,4.20
2019-04-04T20:51:06.630Z,4.50
2019-04-04T20:53:53.782Z,4.53
2019-04-04T20:56:41.044Z,4.30
2019-04-04T20:59:28.361Z,4.73
2019-04-04T21:02:15.701Z,4.20
2019-04-04T21:05:02.717Z,4.70
2019-04-04T21:07:50.101Z,4.33
2019-04-04T21:10:37.365Z,4.27
2019-04-04T21:13:24.585Z,3.87
2019-04-04T21:16:11.546Z,3.80
2019-04-04T21:18:58.698Z,4.40
2019-04-04T21:21:46.013Z,4.40
2019-04-04T21:24:33.009Z,4.47
2019-04-04T21:27:19.780Z,4.20
2019-04-04T21:30:08.297Z,4.10
2019-04-04T21:32:55.722Z,3.90
2019-04-04T21:35:42.950Z,4.03
2019-04-04T21:38:30.226Z,3.60
2019-04-04T21:41:17.593Z,4.20
2019-04-04T21:44:09.151Z,3.47
2019-04-04T21:46:53.603Z,3.60
2019-04-04T21:49:40.913Z,3.70
2019-04-04T21:52:28.351Z,2.80
2019-04-04T21:55:15.634Z,3.63
2019-04-04T21:58:02.405Z,3.10
2019-04-04T22:00:51.562Z,3.80
2019-04-04T22:03:39.014Z,4.00
2019-04-04T22:06:26.455Z,4.27
2019-04-04T22:09:19.724Z,3.70
2019-04-04T22:12:06.991Z,3.90
2019-04-04T22:14:54.103Z,4.37
2019-04-04T22:17:41.483Z,4.03
2019-04-04T22:20:28.414Z,4.17
2019-04-04T22:23:15.661Z,4.60
2019-04-04T22:26:02.531Z,4.50
2019-04-04T22:28:49.327Z,4.90
2019-04-04T22:31:36.480Z,4.33
2019-04-04T22:34:23.879Z,3.90
2019-04-04T22:37:10.902Z,4.27
2019-04-04T22:39:57.855Z,4.03
2019-04-04T22:42:44.913Z,3.70
2019-04-04T22:45:31.949Z,3.53
2019-04-04T22:48:18.673Z,3.53
2019-04-04T22:51:05.820Z,4.00
2019-04-04T22:53:53.106Z,4.20
2019-04-04T22:56:40.145Z,4.80
2019-04-04T22:59:27.273Z,4.23
2019-04-04T23:02:14.579Z,4.30
2019-04-04T23:05:01.859Z,4.00
2019-04-04T23:07:49.048Z,4.07
2019-04-04T23:10:36.477Z,4.20
2019-04-04T23:13:24.158Z,3.90
2019-04-04T23:16:11.066Z,3.47
2019-04-04T23:18:58.145Z,3.70
2019-04-04T23:21:45.196Z,3.30
2019-04-04T23:24:32.423Z,3.10
2019-04-04T23:27:19.213Z,3.43
2019-04-04T23:30:08.180Z,3.03
2019-04-04T23:32:55.407Z,3.37
2019-04-04T23:35:42.550Z,2.70
2019-04-04T23:38:29.339Z,2.40
2019-04-04T23:41:16.052Z,2.73
2019-04-04T23:44:02.978Z,2.77
2019-04-04T23:46:49.978Z,2.90
2019-04-04T23:49:36.739Z,2.90
2019-04-04T23:52:23.816Z,2.50
2019-04-04T23:55:11.097Z,2.80
2019-04-04T23:57:58.053Z,2.90
